createdAt,value
2018-09-13T00:17:43.072Z,88.11
2018-09-13T00:38:30.626Z,89.55
2018-09-13T00:59:12.319Z,90.61
2018-09-13T01:19:56.230Z,91.02
2018-09-13T01:40:37.645Z,91.04
2018-09-13T02:01:18.762Z,92.28
2018-09-13T02:22:02.936Z,92.19
2018-09-13T02:42:41.280Z,92.67
2018-09-13T03:03:19.624Z,93.68
2018-09-13T03:23:58.892Z,95.05
2018-09-13T03:44:39.081Z,94.72
2018-09-13T04:05:21.735Z,95.08
2018-09-13T04:26:02.835Z,94.80
2018-09-13T04:46:46.097Z,94.63
2018-09-13T05:07:31.513Z,94.74
2018-09-13T05:28:15.026Z,94.63
2018-09-13T05:48:58.024Z,94.60
2018-09-13T06:09:41.280Z,94.38
2018-09-13T06:30:22.963Z,94.76
2018-09-13T06:51:02.890Z,94.39
2018-09-13T07:11:42.167Z,92.82
2018-09-13T07:32:21.435Z,92.19
2018-09-13T07:53:00.686Z,91.11
2018-09-13T08:13:39.030Z,89.42
2018-09-13T08:34:17.655Z,90.59
2018-09-13T08:55:01.593Z,89.06
2018-09-13T09:15:40.825Z,87.33
2018-09-13T09:36:23.162Z,85.61
2018-09-13T09:57:04.271Z,85.91
2018-09-13T10:17:49.683Z,84.15
2018-09-13T10:38:36.346Z,83.95
2018-09-13T11:17:24.016Z,85.91
2018-09-13T11:38:06.365Z,84.49
2018-09-13T11:58:44.051Z,83.38
2018-09-13T12:19:27.960Z,82.72
2018-09-13T12:40:05.384Z,82.84
2018-09-13T13:00:45.570Z,82.57
2018-09-13T13:21:25.756Z,81.63
2018-09-13T13:42:08.097Z,81.43
2018-09-13T14:02:50.433Z,82.48
2018-09-13T14:23:32.773Z,84.04
2018-09-13T14:44:24.024Z,85.31
2018-09-13T15:05:02.639Z,84.19
2018-09-13T15:25:44.929Z,83.74
2018-09-13T15:46:24.890Z,84.12
2018-09-13T16:07:07.843Z,84.40
2018-09-13T16:27:51.409Z,84.97
2018-09-13T16:48:33.442Z,86.26
2018-09-13T17:09:18.233Z,86.21
2018-09-13T17:29:57.500Z,86.14
2018-09-13T17:50:36.774Z,85.70
2018-09-13T18:11:16.048Z,86.21
2018-09-13T18:32:01.447Z,85.49
2018-09-13T18:52:41.647Z,85.43
2018-09-13T19:13:19.059Z,85.86
2018-09-13T19:34:02.465Z,86.61
2018-09-13T19:54:45.578Z,87.29
2018-09-13T20:15:26.688Z,87.61
2018-09-13T20:36:08.389Z,87.16
2018-09-13T20:56:51.367Z,86.71
2018-09-13T21:17:31.554Z,86.75
2018-09-13T21:38:14.245Z,87.13
2018-09-13T21:58:57.162Z,87.01
2018-09-13T22:19:39.799Z,86.71
2018-09-13T22:40:25.822Z,86.88
2018-09-13T23:01:06.011Z,86.92
2018-09-13T23:21:48.654Z,88.16
2018-09-13T23:42:32.834Z,88.85
